Omidiyeh, Iran
Current Conditions -  °F | °C
As of 2:00 PM on Sunday 21 Dec 2014 (Local Time) from OIAG Reporting Station
Broken Clouds Broken Clouds  
Wind Chill: 66°   Ceiling: 4000
Heat Index: 66°   Visibility: 6mi
Dew Point: 48°   Wind: 14mph
Humidity: 52%   Direction: 110°ESE
Pressure: 29.94"   Gusts: NA
Location:  30.75°N, 49.71°E
Report Text: OIAG 211100Z 11012KT 9999 FEW035CB BKN040 19/09 Q1014
Loading
Personal Weather Stations






























Interactive Weather Map New forecast layout! Learn more

10-Day Weather Forecast

Advertisements
Track Severe Weather on mobile